Time;durP1;ratioP1;P1;durP2;ratioP2;P2;SDS_P1;SDS_P2;PMS_P1;PMS_P2;Temp;Humidity;BMP_temperature;BMP_pressure;BME280_temperature;BME280_humidity;BME280_pressure;Samples;Min_cycle;Max_cycle;Signal;HPM_P1;HPM_P2
2023/06/20 00:01:21;;;;;;;6.97;6.27;;;;;;;;;;5049196;28;20509;-53
2023/06/20 00:03:47;;;;;;;6.77;6.17;;;;;;;;;;5049971;28;20900;-54
2023/06/20 00:06:13;;;;;;;6.43;5.73;;;;;;;;;;5054820;28;20441;-53
2023/06/20 00:08:39;;;;;;;6.60;6.00;;;;;;;;;;5052694;28;20413;-53
2023/06/20 00:11:05;;;;;;;7.77;6.97;;;;;;;;;;5045557;28;20469;-52
2023/06/20 00:13:31;;;;;;;6.17;5.57;;;;;;;;;;5040359;28;21827;-54
2023/06/20 00:15:57;;;;;;;6.20;5.70;;;;;;;;;;5056168;28;20417;-54
2023/06/20 00:18:24;;;;;;;7.00;5.87;;;;;;;;;;5054529;28;20458;-53
2023/06/20 00:20:53;;;;;;;7.37;5.50;;;;;;;;;;5057195;28;20612;-53
2023/06/20 00:23:19;;;;;;;7.10;5.70;;;;;;;;;;5043552;28;20410;-54
2023/06/20 00:25:45;;;;;;;6.33;5.80;;;;;;;;;;5054065;28;20396;-54
2023/06/20 00:28:14;;;;;;;7.20;6.33;;;;;;;;;;5053564;28;20899;-54
2023/06/20 00:30:40;;;;;;;6.73;5.27;;;;;;;;;;5064867;28;20904;-54
2023/06/20 00:33:05;;;;;;;6.37;5.70;;;;;;;;;;5046199;28;20863;-53
2023/06/20 00:35:31;;;;;;;6.67;6.07;;;;;;;;;;5054832;28;20405;-53
2023/06/20 00:37:57;;;;;;;8.10;6.80;;;;;;;;;;5050913;28;20401;-54
2023/06/20 00:40:23;;;;;;;6.13;5.53;;;;;;;;;;5054994;28;20428;-54
2023/06/20 00:42:49;;;;;;;5.83;5.33;;;;;;;;;;5067226;28;20411;-54
2023/06/20 00:45:29;;;;;;;6.30;5.80;;;;;;;;;;5046265;28;20820;-53
2023/06/20 00:47:57;;;;;;;7.93;6.77;;;;;;;;;;5052735;28;20418;-53
2023/06/20 00:50:27;;;;;;;6.87;6.20;;;;;;;;;;5059760;28;20495;-54
2023/06/20 00:52:55;;;;;;;9.23;6.67;;;;;;;;;;5048403;28;21033;-54
2023/06/20 00:55:21;;;;;;;5.63;5.13;;;;;;;;;;5054398;28;20813;-54
2023/06/20 00:57:48;;;;;;;6.70;6.10;;;;;;;;;;5050102;28;20456;-51
2023/06/20 01:00:14;;;;;;;6.90;6.03;;;;;;;;;;5053219;28;20470;-55
2023/06/20 01:02:46;;;;;;;6.40;5.90;;;;;;;;;;5057363;28;20421;-54
2023/06/20 01:05:13;;;;;;;8.83;6.07;;;;;;;;;;5037713;28;20417;-53
2023/06/20 01:08:00;;;;;;;6.70;5.70;;;;;;;;;;5042353;28;20404;-51
2023/06/20 01:10:42;;;;;;;7.07;6.37;;;;;;;;;;5044718;28;20468;-51
2023/06/20 01:13:20;;;;;;;7.30;6.67;;;;;;;;;;5040808;28;20497;-51
2023/06/20 01:15:51;;;;;;;6.83;6.33;;;;;;;;;;5041565;28;20434;-54
2023/06/20 01:18:26;;;;;;;6.60;6.00;;;;;;;;;;5064850;28;20458;-54
2023/06/20 01:20:55;;;;;;;7.33;5.80;;;;;;;;;;5048834;28;20495;-53
2023/06/20 01:23:30;;;;;;;7.40;6.50;;;;;;;;;;5055820;28;20419;-54
2023/06/20 01:25:56;;;;;;;11.50;7.10;;;;;;;;;;5053280;28;20408;-54
2023/06/20 01:28:30;;;;;;;6.03;5.53;;;;;;;;;;5051793;28;20412;-54
2023/06/20 01:31:03;;;;;;;7.57;6.47;;;;;;;;;;5050081;28;20416;-54
2023/06/20 01:33:31;;;;;;;8.00;6.03;;;;;;;;;;5045173;28;20838;-53
2023/06/20 01:35:58;;;;;;;7.07;6.40;;;;;;;;;;5050321;28;20847;-53
2023/06/20 01:38:27;;;;;;;6.50;5.90;;;;;;;;;;5057267;28;20876;-53
2023/06/20 01:40:53;;;;;;;8.80;7.27;;;;;;;;;;5058156;28;20432;-53
2023/06/20 01:43:20;;;;;;;7.70;7.00;;;;;;;;;;5052561;28;20458;-52
2023/06/20 01:45:47;;;;;;;7.90;7.17;;;;;;;;;;5057823;28;20900;-53
2023/06/20 01:48:14;;;;;;;8.37;7.50;;;;;;;;;;5052174;28;20427;-53
2023/06/20 01:50:40;;;;;;;7.57;6.90;;;;;;;;;;5046078;28;20430;-53
2023/06/20 01:53:08;;;;;;;8.30;7.60;;;;;;;;;;5054533;28;20845;-53
2023/06/20 01:55:34;;;;;;;9.33;7.40;;;;;;;;;;5042108;28;20833;-54
2023/06/20 01:58:01;;;;;;;10.47;6.93;;;;;;;;;;5058716;28;20999;-54
2023/06/20 02:00:28;;;;;;;9.30;7.77;;;;;;;;;;5048100;28;20921;-53
2023/06/20 02:02:57;;;;;;;10.07;6.77;;;;;;;;;;5069179;28;20413;-52
2023/06/20 02:05:25;;;;;;;8.10;7.10;;;;;;;;;;5053318;28;20401;-53
2023/06/20 02:07:54;;;;;;;7.80;7.10;;;;;;;;;;5054595;28;20825;-53
2023/06/20 02:10:21;;;;;;;11.13;7.77;;;;;;;;;;5057237;28;20459;-52
2023/06/20 02:12:48;;;;;;;7.33;6.63;;;;;;;;;;5056657;28;20912;-53
2023/06/20 02:15:15;;;;;;;7.60;6.90;;;;;;;;;;5057857;28;20427;-53
2023/06/20 02:17:41;;;;;;;9.03;7.00;;;;;;;;;;5036029;28;20440;-53
2023/06/20 02:20:07;;;;;;;8.13;7.00;;;;;;;;;;5052737;28;20525;-52
2023/06/20 02:22:36;;;;;;;7.03;6.30;;;;;;;;;;5051485;28;20400;-53
2023/06/20 02:25:05;;;;;;;10.17;7.40;;;;;;;;;;5050777;28;20424;-52
2023/06/20 02:27:32;;;;;;;7.87;7.07;;;;;;;;;;5052926;28;20402;-53
2023/06/20 02:30:00;;;;;;;9.67;7.23;;;;;;;;;;5057475;28;21228;-53
2023/06/20 02:32:26;;;;;;;8.70;6.47;;;;;;;;;;5049705;28;20417;-54
2023/06/20 02:34:55;;;;;;;8.23;7.00;;;;;;;;;;5044740;28;20893;-53
2023/06/20 02:37:22;;;;;;;7.60;6.77;;;;;;;;;;5041919;28;20410;-53
2023/06/20 02:39:49;;;;;;;7.17;6.30;;;;;;;;;;5049855;28;20938;-52
2023/06/20 02:42:15;;;;;;;8.83;6.80;;;;;;;;;;5054814;28;20750;-52
2023/06/20 02:44:41;;;;;;;11.73;6.93;;;;;;;;;;5055752;28;20438;-53
2023/06/20 02:47:12;;;;;;;7.40;6.70;;;;;;;;;;5050914;28;20424;-52
2023/06/20 02:49:40;;;;;;;7.60;6.90;;;;;;;;;;5046663;28;20413;-54
2023/06/20 02:52:13;;;;;;;7.00;6.30;;;;;;;;;;5052900;28;20900;-53
2023/06/20 02:54:42;;;;;;;8.37;7.00;;;;;;;;;;5053310;28;20414;-53
2023/06/20 02:57:11;;;;;;;7.83;7.10;;;;;;;;;;5056578;28;20578;-53
2023/06/20 02:59:39;;;;;;;7.37;6.67;;;;;;;;;;5046474;28;20463;-53
2023/06/20 03:02:06;;;;;;;11.27;7.00;;;;;;;;;;5042085;28;20497;-53
2023/06/20 03:04:34;;;;;;;8.20;6.10;;;;;;;;;;5051400;28;20406;-52
2023/06/20 03:07:01;;;;;;;8.20;6.37;;;;;;;;;;5051294;28;20405;-52
2023/06/20 03:09:28;;;;;;;7.60;6.80;;;;;;;;;;5043548;28;20436;-53
2023/06/20 03:11:54;;;;;;;9.80;6.67;;;;;;;;;;5047249;28;20457;-53
2023/06/20 03:14:20;;;;;;;7.63;6.67;;;;;;;;;;5049754;28;20835;-53
2023/06/20 03:16:46;;;;;;;7.07;6.37;;;;;;;;;;5060218;28;20424;-52
2023/06/20 03:19:12;;;;;;;8.80;7.80;;;;;;;;;;5060542;28;20482;-53
2023/06/20 03:21:38;;;;;;;9.73;6.33;;;;;;;;;;5057659;28;20731;-53
2023/06/20 03:24:05;;;;;;;12.50;6.43;;;;;;;;;;5048895;28;20409;-53
2023/06/20 03:26:31;;;;;;;6.73;6.00;;;;;;;;;;5048607;28;20413;-53
2023/06/20 03:28:56;;;;;;;11.33;7.27;;;;;;;;;;5047715;28;20417;-53
2023/06/20 03:31:23;;;;;;;6.00;5.50;;;;;;;;;;5049333;28;20495;-53
2023/06/20 03:33:48;;;;;;;5.83;5.43;;;;;;;;;;5044262;28;20496;-53
2023/06/20 03:36:15;;;;;;;5.87;5.27;;;;;;;;;;5059477;28;20515;-53
2023/06/20 03:38:42;;;;;;;6.70;5.40;;;;;;;;;;5059822;28;20482;-53
2023/06/20 03:41:08;;;;;;;5.90;5.13;;;;;;;;;;5050543;28;20460;-52
2023/06/20 03:43:34;;;;;;;5.10;4.70;;;;;;;;;;5053402;28;21017;-53
2023/06/20 03:46:00;;;;;;;5.63;5.13;;;;;;;;;;5053844;28;20567;-53
2023/06/20 03:48:26;;;;;;;6.87;4.90;;;;;;;;;;5056372;28;20406;-53
2023/06/20 03:50:52;;;;;;;5.00;4.60;;;;;;;;;;5058330;28;20434;-53
2023/06/20 03:53:18;;;;;;;5.10;4.60;;;;;;;;;;5062757;28;20465;-53
2023/06/20 03:55:44;;;;;;;5.70;5.00;;;;;;;;;;5053096;28;20491;-53
2023/06/20 03:58:10;;;;;;;5.17;4.77;;;;;;;;;;5049867;28;20409;-52
2023/06/20 04:00:36;;;;;;;7.60;5.27;;;;;;;;;;5052362;28;20434;-53
2023/06/20 04:03:03;;;;;;;5.67;4.80;;;;;;;;;;5052605;28;20405;-53
2023/06/20 04:05:29;;;;;;;6.20;4.83;;;;;;;;;;5052064;28;20453;-52
2023/06/20 04:07:55;;;;;;;5.27;4.77;;;;;;;;;;5046731;28;20517;-53
2023/06/20 04:10:21;;;;;;;5.87;4.90;;;;;;;;;;5060412;28;20919;-53
2023/06/20 04:12:47;;;;;;;5.43;4.93;;;;;;;;;;5052125;28;20420;-52
2023/06/20 04:15:13;;;;;;;5.47;4.70;;;;;;;;;;5042595;28;20895;-53
2023/06/20 04:17:40;;;;;;;4.83;4.43;;;;;;;;;;5053273;28;20903;-52
2023/06/20 04:20:11;;;;;;;5.67;5.07;;;;;;;;;;5054478;28;20982;-53
2023/06/20 04:22:40;;;;;;;5.20;4.70;;;;;;;;;;5047738;28;20446;-53
2023/06/20 04:25:07;;;;;;;5.03;4.53;;;;;;;;;;5055025;28;20892;-52
2023/06/20 04:27:32;;;;;;;5.00;4.60;;;;;;;;;;5059243;28;20889;-53
2023/06/20 04:29:58;;;;;;;7.70;4.80;;;;;;;;;;5047720;28;20471;-53
2023/06/20 04:32:24;;;;;;;6.20;4.87;;;;;;;;;;5043741;28;20418;-53
2023/06/20 04:34:52;;;;;;;7.83;4.97;;;;;;;;;;5051464;28;20418;-54
2023/06/20 04:37:18;;;;;;;7.30;5.00;;;;;;;;;;5050497;28;20433;-54
2023/06/20 04:39:44;;;;;;;6.90;5.20;;;;;;;;;;5052592;28;20515;-52
2023/06/20 04:42:10;;;;;;;8.07;4.97;;;;;;;;;;5055034;28;20402;-53
2023/06/20 04:44:36;;;;;;;5.60;5.00;;;;;;;;;;5050273;28;20398;-53
2023/06/20 04:47:02;;;;;;;9.97;4.87;;;;;;;;;;5050336;28;20412;-53
2023/06/20 04:49:29;;;;;;;5.30;4.80;;;;;;;;;;5044498;28;20426;-53
2023/06/20 04:51:57;;;;;;;8.03;5.50;;;;;;;;;;5051194;28;20945;-54
2023/06/20 04:54:24;;;;;;;5.70;5.13;;;;;;;;;;5058002;28;20435;-54
2023/06/20 04:56:50;;;;;;;5.90;4.60;;;;;;;;;;5059375;28;20408;-53
2023/06/20 04:59:16;;;;;;;9.37;5.10;;;;;;;;;;5053521;28;20552;-53
2023/06/20 05:01:42;;;;;;;11.10;5.37;;;;;;;;;;5055980;28;20429;-53
2023/06/20 05:04:08;;;;;;;5.37;4.90;;;;;;;;;;5054136;28;20407;-53
2023/06/20 05:06:34;;;;;;;5.70;5.20;;;;;;;;;;5057547;28;20921;-53
2023/06/20 05:09:00;;;;;;;11.10;5.27;;;;;;;;;;5059851;28;20412;-53
2023/06/20 05:11:27;;;;;;;5.80;5.30;;;;;;;;;;5040970;28;20941;-53
2023/06/20 05:13:53;;;;;;;6.03;5.43;;;;;;;;;;5047996;28;20433;-53
2023/06/20 05:16:19;;;;;;;11.83;4.87;;;;;;;;;;5055049;28;20425;-53
2023/06/20 05:18:46;;;;;;;6.17;5.23;;;;;;;;;;5059016;28;20450;-53
2023/06/20 05:21:12;;;;;;;5.70;5.20;;;;;;;;;;5052653;28;20426;-53
2023/06/20 05:23:38;;;;;;;6.23;5.00;;;;;;;;;;5048223;28;20947;-53
2023/06/20 05:26:04;;;;;;;6.40;4.87;;;;;;;;;;5057295;28;20410;-52
2023/06/20 05:28:30;;;;;;;6.07;4.70;;;;;;;;;;5062634;28;20495;-52
2023/06/20 05:30:56;;;;;;;5.60;5.10;;;;;;;;;;5056642;28;20437;-53
2023/06/20 05:33:22;;;;;;;5.60;5.07;;;;;;;;;;5049927;28;20413;-53
2023/06/20 05:35:48;;;;;;;6.90;5.73;;;;;;;;;;5051546;28;20421;-53
2023/06/20 05:38:15;;;;;;;6.33;5.30;;;;;;;;;;5039651;28;20460;-53
2023/06/20 05:40:41;;;;;;;6.60;4.83;;;;;;;;;;5055733;28;20431;-53
2023/06/20 05:43:08;;;;;;;8.17;5.20;;;;;;;;;;5054286;28;20924;-53
2023/06/20 05:45:33;;;;;;;6.17;5.23;;;;;;;;;;5055747;28;20416;-54
2023/06/20 05:48:00;;;;;;;5.80;5.30;;;;;;;;;;5060194;28;20419;-53
2023/06/20 05:50:26;;;;;;;5.93;5.33;;;;;;;;;;5047739;28;20433;-52
2023/06/20 05:52:52;;;;;;;5.60;5.00;;;;;;;;;;5046186;28;20415;-53
2023/06/20 05:55:19;;;;;;;5.70;5.20;;;;;;;;;;5057711;28;20414;-53
2023/06/20 05:57:45;;;;;;;7.33;5.90;;;;;;;;;;5054692;28;20423;-52
2023/06/20 06:00:12;;;;;;;6.07;5.47;;;;;;;;;;5051185;28;20474;-54
2023/06/20 06:02:38;;;;;;;5.70;4.90;;;;;;;;;;5061282;28;20409;-53
2023/06/20 06:05:04;;;;;;;5.73;4.60;;;;;;;;;;5044874;28;20514;-54
2023/06/20 06:07:30;;;;;;;5.20;4.80;;;;;;;;;;5046114;28;20865;-54
2023/06/20 06:09:56;;;;;;;5.40;4.57;;;;;;;;;;5045739;28;20675;-53
2023/06/20 06:12:22;;;;;;;6.17;5.40;;;;;;;;;;5052926;28;20401;-54
2023/06/20 06:14:51;;;;;;;7.33;5.47;;;;;;;;;;5051205;28;20505;-52
2023/06/20 06:17:17;;;;;;;6.30;5.53;;;;;;;;;;5051295;28;20409;-53
2023/06/20 06:19:43;;;;;;;5.30;4.80;;;;;;;;;;5047693;28;20458;-53
2023/06/20 06:22:09;;;;;;;7.10;5.27;;;;;;;;;;5055080;28;20508;-53
2023/06/20 06:24:35;;;;;;;5.03;4.63;;;;;;;;;;5059432;28;20414;-53
2023/06/20 06:27:03;;;;;;;6.53;5.93;;;;;;;;;;5057553;28;20418;-53
2023/06/20 06:29:28;;;;;;;5.33;4.73;;;;;;;;;;5048993;28;20428;-54
2023/06/20 06:31:55;;;;;;;6.43;5.73;;;;;;;;;;5049611;28;20434;-53
2023/06/20 06:34:21;;;;;;;6.33;5.40;;;;;;;;;;5051422;28;20464;-54
2023/06/20 06:36:49;;;;;;;5.77;5.20;;;;;;;;;;5052052;28;20792;-54
2023/06/20 06:39:16;;;;;;;5.20;4.70;;;;;;;;;;5051849;28;20460;-53
2023/06/20 06:41:43;;;;;;;9.13;5.00;;;;;;;;;;5047238;28;20432;-53
2023/06/20 06:44:09;;;;;;;5.40;4.90;;;;;;;;;;5045163;28;20916;-53
2023/06/20 06:46:35;;;;;;;6.93;5.13;;;;;;;;;;5055593;28;20406;-53
2023/06/20 06:49:02;;;;;;;6.03;5.03;;;;;;;;;;5060600;28;20854;-53
2023/06/20 06:51:28;;;;;;;5.40;4.90;;;;;;;;;;5052272;28;20433;-53
2023/06/20 06:53:54;;;;;;;6.23;5.23;;;;;;;;;;5052965;28;20820;-54
2023/06/20 06:56:20;;;;;;;5.20;4.80;;;;;;;;;;5052453;28;20503;-53
2023/06/20 06:58:46;;;;;;;5.07;4.57;;;;;;;;;;5056986;28;20464;-53
2023/06/20 07:01:12;;;;;;;5.10;4.70;;;;;;;;;;5045674;28;20465;-53
2023/06/20 07:03:37;;;;;;;6.23;5.63;;;;;;;;;;5063494;28;20482;-53
2023/06/20 07:06:04;;;;;;;5.80;5.30;;;;;;;;;;5053753;28;20422;-53
2023/06/20 07:08:30;;;;;;;6.20;5.60;;;;;;;;;;5055089;28;20408;-53
2023/06/20 07:10:55;;;;;;;5.50;4.97;;;;;;;;;;5051442;28;20429;-53
2023/06/20 07:13:25;;;;;;;6.80;5.07;;;;;;;;;;5055637;28;20444;-53
2023/06/20 07:15:51;;;;;;;5.50;5.03;;;;;;;;;;5058374;28;20459;-53
2023/06/20 07:18:17;;;;;;;6.00;4.53;;;;;;;;;;5052418;28;20511;-53
2023/06/20 07:20:43;;;;;;;7.30;6.57;;;;;;;;;;5045878;28;21066;-53
2023/06/20 07:23:09;;;;;;;5.50;5.00;;;;;;;;;;5046864;28;20405;-53
2023/06/20 07:25:35;;;;;;;9.00;5.10;;;;;;;;;;5057092;28;20899;-52
2023/06/20 07:28:01;;;;;;;6.73;4.83;;;;;;;;;;5057297;28;20864;-53
2023/06/20 07:30:27;;;;;;;8.17;5.43;;;;;;;;;;5055710;28;20545;-53
2023/06/20 07:32:53;;;;;;;5.27;4.77;;;;;;;;;;5058420;28;20914;-53
2023/06/20 07:35:19;;;;;;;5.63;5.13;;;;;;;;;;5055669;28;20415;-53
2023/06/20 07:37:45;;;;;;;5.40;5.00;;;;;;;;;;5061346;28;20456;-53
2023/06/20 07:40:11;;;;;;;5.20;4.80;;;;;;;;;;5059335;28;20904;-53
2023/06/20 07:42:37;;;;;;;4.73;4.33;;;;;;;;;;5043589;28;20416;-53
2023/06/20 07:45:03;;;;;;;6.17;5.20;;;;;;;;;;5044563;28;20412;-53
2023/06/20 07:47:29;;;;;;;6.60;4.80;;;;;;;;;;5052969;28;20417;-53
2023/06/20 07:49:55;;;;;;;5.47;4.93;;;;;;;;;;5051862;28;20480;-53
2023/06/20 07:52:21;;;;;;;5.67;5.17;;;;;;;;;;5052512;28;20416;-53
2023/06/20 07:54:47;;;;;;;4.77;4.37;;;;;;;;;;5046445;28;20429;-54
2023/06/20 07:57:13;;;;;;;5.43;4.97;;;;;;;;;;5061404;28;20425;-53
2023/06/20 07:59:39;;;;;;;5.50;5.00;;;;;;;;;;5042004;28;20501;-54
2023/06/20 08:02:06;;;;;;;5.13;4.63;;;;;;;;;;5057140;28;20964;-53
2023/06/20 08:04:31;;;;;;;4.67;4.17;;;;;;;;;;5054292;28;20409;-54
2023/06/20 08:06:57;;;;;;;6.07;4.97;;;;;;;;;;5053166;28;20436;-54
2023/06/20 08:09:23;;;;;;;5.10;4.70;;;;;;;;;;5054143;28;20413;-53
2023/06/20 08:11:49;;;;;;;10.70;5.40;;;;;;;;;;5053657;28;20456;-53
2023/06/20 08:14:16;;;;;;;5.50;4.90;;;;;;;;;;5051102;28;20460;-53
2023/06/20 08:16:42;;;;;;;6.47;4.70;;;;;;;;;;5051769;28;20747;-52
2023/06/20 08:19:08;;;;;;;4.43;4.03;;;;;;;;;;5053473;28;20502;-53
2023/06/20 08:21:34;;;;;;;4.97;4.67;;;;;;;;;;5053533;28;20433;-53
2023/06/20 08:24:00;;;;;;;4.97;4.43;;;;;;;;;;5052545;28;20413;-53
2023/06/20 08:26:26;;;;;;;4.83;4.43;;;;;;;;;;5053883;28;20405;-54
2023/06/20 08:28:52;;;;;;;7.97;4.23;;;;;;;;;;5052946;28;20416;-53
2023/06/20 08:31:18;;;;;;;5.10;4.70;;;;;;;;;;5050513;28;20469;-53
2023/06/20 08:33:44;;;;;;;8.23;5.07;;;;;;;;;;5050077;28;20409;-53
2023/06/20 08:36:10;;;;;;;4.77;4.47;;;;;;;;;;5053460;28;20428;-53
2023/06/20 08:38:38;;;;;;;5.00;4.60;;;;;;;;;;5053280;28;20459;-53
2023/06/20 08:41:04;;;;;;;5.00;4.60;;;;;;;;;;5053236;28;20429;-52
2023/06/20 08:43:30;;;;;;;4.80;4.30;;;;;;;;;;5053563;28;20778;-53
2023/06/20 08:45:56;;;;;;;5.00;4.60;;;;;;;;;;5053197;28;20463;-55
2023/06/20 08:48:26;;;;;;;4.67;4.27;;;;;;;;;;5052694;28;20505;-52
2023/06/20 08:50:52;;;;;;;4.43;3.97;;;;;;;;;;5051113;28;20432;-53
2023/06/20 08:53:18;;;;;;;7.70;5.90;;;;;;;;;;5051293;28;20413;-52
2023/06/20 08:55:45;;;;;;;6.33;5.20;;;;;;;;;;5038755;28;20486;-54
2023/06/20 08:58:14;;;;;;;6.20;4.53;;;;;;;;;;5042490;28;20394;-56
2023/06/20 09:00:40;;;;;;;4.10;3.70;;;;;;;;;;5051737;28;20449;-51
2023/06/20 09:03:06;;;;;;;4.57;4.17;;;;;;;;;;5052291;28;20402;-51
2023/06/20 09:05:33;;;;;;;3.60;3.40;;;;;;;;;;5052957;28;20776;-52
2023/06/20 09:07:59;;;;;;;4.20;3.90;;;;;;;;;;5051838;28;20413;-52
2023/06/20 09:10:25;;;;;;;4.20;3.90;;;;;;;;;;5052534;28;20429;-51
2023/06/20 09:12:52;;;;;;;3.67;3.37;;;;;;;;;;5058063;28;20442;-52
2023/06/20 09:15:19;;;;;;;3.80;3.40;;;;;;;;;;5043015;28;20418;-53
2023/06/20 09:17:49;;;;;;;5.57;3.30;;;;;;;;;;5056887;28;20405;-52
2023/06/20 09:20:15;;;;;;;4.40;3.33;;;;;;;;;;5058763;28;20548;-52
2023/06/20 09:22:42;;;;;;;14.37;4.47;;;;;;;;;;5056922;28;20815;-52
2023/06/20 09:25:08;;;;;;;3.47;3.17;;;;;;;;;;5054656;28;20436;-52
2023/06/20 09:27:35;;;;;;;4.33;4.03;;;;;;;;;;5057844;28;20913;-52
2023/06/20 09:30:03;;;;;;;4.00;3.70;;;;;;;;;;5049268;28;20439;-53
2023/06/20 09:32:33;;;;;;;6.20;4.10;;;;;;;;;;5052911;28;20927;-53
2023/06/20 09:35:01;;;;;;;3.77;3.57;;;;;;;;;;5050037;28;20919;-52
2023/06/20 09:37:35;;;;;;;3.70;3.40;;;;;;;;;;5065056;28;20413;-52
2023/06/20 09:40:11;;;;;;;5.20;4.10;;;;;;;;;;5054004;28;20474;-52
2023/06/20 09:42:37;;;;;;;4.10;3.70;;;;;;;;;;5060018;28;20419;-53
2023/06/20 09:45:04;;;;;;;3.87;3.57;;;;;;;;;;5051740;28;20458;-53
2023/06/20 09:47:30;;;;;;;3.90;3.40;;;;;;;;;;5058732;28;20406;-52
2023/06/20 09:49:59;;;;;;;4.53;4.13;;;;;;;;;;5054138;28;20406;-52
2023/06/20 09:52:43;;;;;;;4.43;3.87;;;;;;;;;;5048830;28;20423;-54
2023/06/20 09:55:10;;;;;;;3.50;3.27;;;;;;;;;;5049735;28;20546;-52
2023/06/20 09:57:39;;;;;;;3.47;3.27;;;;;;;;;;5042391;28;20419;-51
2023/06/20 10:00:27;;;;;;;3.73;3.43;;;;;;;;;;5046055;28;20957;-52
2023/06/20 10:02:53;;;;;;;3.80;3.60;;;;;;;;;;5051007;28;20405;-52
2023/06/20 10:05:20;;;;;;;3.90;3.60;;;;;;;;;;5045367;28;20414;-52
2023/06/20 10:07:47;;;;;;;4.27;3.97;;;;;;;;;;5047753;28;20414;-52
2023/06/20 10:10:14;;;;;;;4.00;3.70;;;;;;;;;;5050992;28;20449;-53
2023/06/20 10:12:41;;;;;;;4.10;3.80;;;;;;;;;;5049279;28;20430;-54
2023/06/20 10:15:09;;;;;;;4.10;3.90;;;;;;;;;;5046692;28;20463;-52
2023/06/20 10:17:39;;;;;;;4.63;4.30;;;;;;;;;;5047636;28;20417;-54
2023/06/20 10:20:08;;;;;;;4.80;4.40;;;;;;;;;;5046138;28;20491;-52
2023/06/20 10:22:34;;;;;;;4.80;4.40;;;;;;;;;;5040420;28;20432;-52
2023/06/20 10:25:14;;;;;;;5.33;4.83;;;;;;;;;;5048673;28;20429;-53
2023/06/20 10:27:57;;;;;;;4.80;4.40;;;;;;;;;;5052823;28;20440;-53
2023/06/20 10:30:41;;;;;;;4.50;4.20;;;;;;;;;;5056632;28;20439;-53
2023/06/20 10:33:08;;;;;;;3.90;3.70;;;;;;;;;;5063288;28;20404;-54
2023/06/20 10:35:34;;;;;;;4.90;4.37;;;;;;;;;;5053130;28;20408;-54
2023/06/20 10:38:07;;;;;;;4.60;4.20;;;;;;;;;;5053489;28;20412;-54
2023/06/20 10:40:35;;;;;;;5.17;4.10;;;;;;;;;;5046509;28;20485;-53
2023/06/20 10:43:05;;;;;;;5.13;4.73;;;;;;;;;;5045668;28;20461;-54
2023/06/20 10:45:31;;;;;;;4.60;4.30;;;;;;;;;;5054396;28;20503;-53
2023/06/20 10:47:57;;;;;;;4.27;3.90;;;;;;;;;;5044143;28;20416;-53
2023/06/20 10:50:23;;;;;;;5.40;4.00;;;;;;;;;;5041355;28;20467;-53
2023/06/20 10:52:50;;;;;;;3.97;3.77;;;;;;;;;;5036435;28;20426;-53
2023/06/20 10:55:17;;;;;;;5.23;4.40;;;;;;;;;;5038763;28;20440;-52
2023/06/20 10:57:49;;;;;;;4.17;3.97;;;;;;;;;;5065613;28;20899;-52
2023/06/20 11:00:19;;;;;;;4.30;4.00;;;;;;;;;;5044161;28;20558;-52
2023/06/20 11:02:47;;;;;;;3.87;3.57;;;;;;;;;;5031622;28;20558;-52
2023/06/20 11:05:13;;;;;;;4.83;3.87;;;;;;;;;;5049579;28;20444;-52
2023/06/20 11:08:04;;;;;;;4.60;4.00;;;;;;;;;;5041965;28;20405;-53
2023/06/20 11:10:31;;;;;;;4.90;3.67;;;;;;;;;;5046891;28;20460;-53
2023/06/20 11:12:58;;;;;;;5.57;5.07;;;;;;;;;;5052041;28;20430;-53
2023/06/20 11:15:28;;;;;;;3.40;3.20;;;;;;;;;;5050840;28;20426;-51
2023/06/20 11:17:55;;;;;;;3.37;3.17;;;;;;;;;;5058114;28;20437;-51
2023/06/20 11:20:21;;;;;;;3.60;3.40;;;;;;;;;;5031080;28;20464;-52
2023/06/20 11:22:48;;;;;;;4.90;3.33;;;;;;;;;;5039516;28;20454;-52
2023/06/20 11:25:27;;;;;;;3.77;3.57;;;;;;;;;;5051298;28;20911;-53
2023/06/20 11:27:53;;;;;;;3.57;3.30;;;;;;;;;;5043898;28;20905;-51
2023/06/20 11:30:26;;;;;;;4.00;3.30;;;;;;;;;;5057754;28;20432;-52
2023/06/20 11:32:58;;;;;;;4.10;3.80;;;;;;;;;;5055496;28;20414;-53
2023/06/20 11:35:24;;;;;;;3.80;3.60;;;;;;;;;;5059068;28;20440;-52
2023/06/20 11:37:50;;;;;;;4.33;3.30;;;;;;;;;;5045609;28;20441;-52
2023/06/20 11:40:16;;;;;;;4.03;3.73;;;;;;;;;;5052474;28;20293;-52
2023/06/20 11:42:42;;;;;;;3.67;3.40;;;;;;;;;;5053759;28;20433;-52
2023/06/20 11:45:12;;;;;;;3.80;3.60;;;;;;;;;;5051542;28;20781;-51
2023/06/20 11:47:38;;;;;;;3.90;3.60;;;;;;;;;;5043671;28;20165;-53
2023/06/20 11:50:05;;;;;;;4.33;4.03;;;;;;;;;;5055778;28;20499;-53
2023/06/20 11:52:34;;;;;;;3.83;3.40;;;;;;;;;;5059726;28;20424;-53
2023/06/20 11:55:00;;;;;;;4.17;3.60;;;;;;;;;;5050737;28;20428;-53
2023/06/20 11:57:26;;;;;;;3.67;3.47;;;;;;;;;;5050756;28;20413;-53
2023/06/20 11:59:53;;;;;;;4.00;3.70;;;;;;;;;;5053967;28;20993;-53
2023/06/20 12:02:19;;;;;;;3.60;3.40;;;;;;;;;;5054508;28;20444;-53
2023/06/20 12:04:56;;;;;;;4.10;3.70;;;;;;;;;;5053631;28;20401;-53
2023/06/20 12:07:22;;;;;;;3.73;3.43;;;;;;;;;;5054799;28;20539;-53
2023/06/20 12:09:48;;;;;;;3.70;3.30;;;;;;;;;;5053397;28;20896;-53
2023/06/20 12:12:14;;;;;;;3.50;3.30;;;;;;;;;;5054586;28;20202;-53
2023/06/20 12:14:40;;;;;;;3.30;3.10;;;;;;;;;;5054239;28;20424;-53
2023/06/20 12:17:06;;;;;;;3.67;3.23;;;;;;;;;;5054440;28;20178;-53
2023/06/20 12:19:32;;;;;;;3.63;3.43;;;;;;;;;;5053889;28;20499;-53
2023/06/20 12:21:59;;;;;;;4.20;3.90;;;;;;;;;;5054236;28;20668;-54
2023/06/20 12:24:27;;;;;;;3.73;3.47;;;;;;;;;;5054605;28;20464;-54
2023/06/20 12:26:54;;;;;;;5.20;3.53;;;;;;;;;;5054075;28;20455;-53
2023/06/20 12:29:20;;;;;;;4.30;4.00;;;;;;;;;;5053777;28;20508;-53
2023/06/20 12:31:46;;;;;;;3.93;3.67;;;;;;;;;;5053654;28;20468;-53
2023/06/20 12:34:12;;;;;;;3.23;3.03;;;;;;;;;;5054043;28;20456;-53
2023/06/20 12:36:38;;;;;;;4.27;3.63;;;;;;;;;;5053860;28;20420;-53
2023/06/20 12:39:04;;;;;;;4.23;3.83;;;;;;;;;;5053860;28;20198;-54
2023/06/20 12:41:34;;;;;;;3.90;3.43;;;;;;;;;;5052680;28;20467;-53
2023/06/20 12:44:00;;;;;;;4.13;3.83;;;;;;;;;;5053640;28;20914;-53
2023/06/20 12:46:26;;;;;;;3.80;3.50;;;;;;;;;;5054040;28;20406;-53
2023/06/20 12:48:53;;;;;;;4.00;3.70;;;;;;;;;;5067254;28;20459;-53
2023/06/20 12:51:19;;;;;;;3.77;3.57;;;;;;;;;;5058293;28;20456;-53
2023/06/20 12:53:45;;;;;;;4.40;4.10;;;;;;;;;;5053507;28;20898;-53
2023/06/20 12:56:11;;;;;;;3.80;3.60;;;;;;;;;;5053423;28;20420;-54
2023/06/20 12:58:37;;;;;;;3.27;3.07;;;;;;;;;;5051362;28;20175;-54
2023/06/20 13:01:03;;;;;;;6.63;4.03;;;;;;;;;;5051890;28;20201;-54
2023/06/20 13:03:29;;;;;;;3.57;3.27;;;;;;;;;;5050507;28;20462;-54
2023/06/20 13:05:55;;;;;;;4.10;3.70;;;;;;;;;;5056830;28;20620;-54
2023/06/20 13:08:21;;;;;;;3.97;3.67;;;;;;;;;;5047679;28;20425;-53
2023/06/20 13:10:47;;;;;;;4.10;3.90;;;;;;;;;;5064907;28;20475;-54
2023/06/20 13:13:13;;;;;;;5.63;4.53;;;;;;;;;;5044820;28;20626;-53
2023/06/20 13:15:39;;;;;;;5.33;3.63;;;;;;;;;;5053741;28;20473;-53
2023/06/20 13:18:08;;;;;;;4.50;4.10;;;;;;;;;;5054768;28;20467;-54
2023/06/20 13:20:34;;;;;;;4.60;4.30;;;;;;;;;;5052302;28;20454;-53
2023/06/20 13:23:01;;;;;;;5.00;3.23;;;;;;;;;;5051321;28;20962;-53
2023/06/20 13:25:27;;;;;;;3.80;3.60;;;;;;;;;;5054993;28;20415;-54
2023/06/20 13:27:54;;;;;;;4.30;3.90;;;;;;;;;;5058859;28;20414;-54
2023/06/20 13:30:20;;;;;;;3.80;3.60;;;;;;;;;;5061059;28;20209;-55
2023/06/20 13:32:47;;;;;;;4.37;4.07;;;;;;;;;;5052967;28;20504;-54
2023/06/20 13:35:13;;;;;;;4.07;3.70;;;;;;;;;;5048427;28;20417;-54
2023/06/20 13:37:39;;;;;;;4.70;4.20;;;;;;;;;;5049966;28;20406;-54
2023/06/20 13:40:10;;;;;;;3.83;3.43;;;;;;;;;;5050641;28;20536;-55
2023/06/20 13:42:41;;;;;;;4.17;3.87;;;;;;;;;;5043529;28;20422;-55
2023/06/20 13:45:14;;;;;;;4.60;4.30;;;;;;;;;;5059439;28;20435;-54
2023/06/20 13:47:40;;;;;;;6.60;4.80;;;;;;;;;;5055071;28;20414;-54
2023/06/20 13:50:06;;;;;;;4.50;4.20;;;;;;;;;;5055799;28;20490;-53
2023/06/20 13:52:33;;;;;;;4.07;3.87;;;;;;;;;;5051251;28;20452;-54
2023/06/20 13:54:59;;;;;;;5.33;4.93;;;;;;;;;;5068230;28;20416;-54
2023/06/20 13:57:25;;;;;;;4.43;4.03;;;;;;;;;;5045920;28;20409;-54
2023/06/20 13:59:51;;;;;;;4.63;4.33;;;;;;;;;;5051804;28;20990;-54
2023/06/20 14:02:17;;;;;;;4.90;4.50;;;;;;;;;;5051726;28;20578;-55
2023/06/20 14:04:43;;;;;;;4.57;4.27;;;;;;;;;;5049782;28;20433;-55
2023/06/20 14:07:10;;;;;;;5.00;4.50;;;;;;;;;;5049455;28;20463;-54
2023/06/20 14:09:36;;;;;;;4.70;4.30;;;;;;;;;;5052370;28;20421;-53
2023/06/20 14:12:03;;;;;;;5.10;4.60;;;;;;;;;;5051395;28;20441;-54
2023/06/20 14:14:29;;;;;;;4.60;4.30;;;;;;;;;;5051576;28;20860;-55
2023/06/20 14:16:55;;;;;;;4.60;4.23;;;;;;;;;;5051611;28;20486;-54
2023/06/20 14:19:21;;;;;;;4.50;4.10;;;;;;;;;;5051844;28;20463;-54
2023/06/20 14:21:47;;;;;;;4.47;4.17;;;;;;;;;;5050841;28;20445;-54
2023/06/20 14:24:13;;;;;;;4.40;4.00;;;;;;;;;;5051874;28;20514;-54
2023/06/20 14:26:40;;;;;;;4.57;4.27;;;;;;;;;;5052144;28;20414;-53
2023/06/20 14:29:06;;;;;;;5.00;4.63;;;;;;;;;;5052091;28;20471;-53
2023/06/20 14:31:32;;;;;;;4.53;4.10;;;;;;;;;;5051849;28;20429;-54
2023/06/20 14:33:58;;;;;;;5.10;4.67;;;;;;;;;;5052118;28;20409;-53
2023/06/20 14:36:28;;;;;;;4.13;3.83;;;;;;;;;;5051964;28;20509;-53
2023/06/20 14:38:54;;;;;;;4.70;4.40;;;;;;;;;;5051851;28;20452;-53
2023/06/20 14:41:20;;;;;;;4.90;4.50;;;;;;;;;;5051794;28;20933;-53
2023/06/20 14:43:46;;;;;;;5.13;4.63;;;;;;;;;;5050713;28;20424;-53